sensor_id;sensor_type;location;lat;lon;timestamp;P1;durP1;ratioP1;P2;durP2;ratioP2
33690;SDS011;20026;50.058;18.428;2023-12-22T00:02:24;192.15;;;55.85;;
33690;SDS011;20026;50.058;18.428;2023-12-22T00:04:54;53.78;;;17.13;;
33690;SDS011;20026;50.058;18.428;2023-12-22T00:07:21;60.08;;;18.70;;
33690;SDS011;20026;50.058;18.428;2023-12-22T00:09:48;30.83;;;12.90;;
33690;SDS011;20026;50.058;18.428;2023-12-22T00:12:20;15.60;;;4.20;;
33690;SDS011;20026;50.058;18.428;2023-12-22T00:14:47;35.25;;;11.35;;
33690;SDS011;20026;50.058;18.428;2023-12-22T00:17:13;30.80;;;7.05;;
33690;SDS011;20026;50.058;18.428;2023-12-22T00:19:40;40.90;;;10.38;;
33690;SDS011;20026;50.058;18.428;2023-12-22T00:22:08;59.80;;;15.05;;
33690;SDS011;20026;50.058;18.428;2023-12-22T00:24:34;33.80;;;6.18;;
33690;SDS011;20026;50.058;18.428;2023-12-22T00:27:00;14.23;;;5.90;;
33690;SDS011;20026;50.058;18.428;2023-12-22T00:29:28;26.40;;;5.35;;
33690;SDS011;20026;50.058;18.428;2023-12-22T00:31:54;20.10;;;4.25;;
33690;SDS011;20026;50.058;18.428;2023-12-22T00:34:21;26.92;;;6.35;;
33690;SDS011;20026;50.058;18.428;2023-12-22T00:36:49;123.30;;;26.73;;
33690;SDS011;20026;50.058;18.428;2023-12-22T00:39:17;80.20;;;21.38;;
33690;SDS011;20026;50.058;18.428;2023-12-22T00:41:43;73.57;;;20.98;;
33690;SDS011;20026;50.058;18.428;2023-12-22T00:44:11;94.07;;;24.55;;
33690;SDS011;20026;50.058;18.428;2023-12-22T00:46:37;87.05;;;23.00;;
33690;SDS011;20026;50.058;18.428;2023-12-22T00:49:04;46.40;;;12.25;;
33690;SDS011;20026;50.058;18.428;2023-12-22T00:51:31;66.38;;;23.83;;
33690;SDS011;20026;50.058;18.428;2023-12-22T00:53:58;20.55;;;5.97;;
33690;SDS011;20026;50.058;18.428;2023-12-22T00:56:25;28.83;;;6.75;;
33690;SDS011;20026;50.058;18.428;2023-12-22T00:58:51;12.77;;;3.53;;
33690;SDS011;20026;50.058;18.428;2023-12-22T01:01:18;74.82;;;17.98;;
33690;SDS011;20026;50.058;18.428;2023-12-22T01:03:47;67.35;;;16.25;;
33690;SDS011;20026;50.058;18.428;2023-12-22T01:06:14;77.53;;;22.27;;
33690;SDS011;20026;50.058;18.428;2023-12-22T01:08:41;52.92;;;17.10;;
33690;SDS011;20026;50.058;18.428;2023-12-22T01:11:08;40.28;;;15.90;;
33690;SDS011;20026;50.058;18.428;2023-12-22T01:13:35;85.57;;;28.13;;
33690;SDS011;20026;50.058;18.428;2023-12-22T01:16:02;54.42;;;17.13;;
33690;SDS011;20026;50.058;18.428;2023-12-22T01:18:29;49.80;;;20.75;;
33690;SDS011;20026;50.058;18.428;2023-12-22T01:21:00;35.55;;;11.32;;
33690;SDS011;20026;50.058;18.428;2023-12-22T01:23:27;70.15;;;22.05;;
33690;SDS011;20026;50.058;18.428;2023-12-22T01:25:53;112.93;;;32.00;;
33690;SDS011;20026;50.058;18.428;2023-12-22T01:28:19;135.50;;;36.08;;
33690;SDS011;20026;50.058;18.428;2023-12-22T01:30:47;184.27;;;47.08;;
33690;SDS011;20026;50.058;18.428;2023-12-22T01:33:13;182.05;;;45.35;;
33690;SDS011;20026;50.058;18.428;2023-12-22T01:35:40;79.18;;;17.25;;
33690;SDS011;20026;50.058;18.428;2023-12-22T01:38:07;60.95;;;16.27;;
33690;SDS011;20026;50.058;18.428;2023-12-22T01:40:34;43.00;;;11.30;;
33690;SDS011;20026;50.058;18.428;2023-12-22T01:43:01;70.75;;;18.85;;
33690;SDS011;20026;50.058;18.428;2023-12-22T01:45:28;94.05;;;52.33;;
33690;SDS011;20026;50.058;18.428;2023-12-22T01:47:56;55.95;;;18.33;;
33690;SDS011;20026;50.058;18.428;2023-12-22T01:50:23;81.47;;;28.55;;
33690;SDS011;20026;50.058;18.428;2023-12-22T01:52:51;32.65;;;12.50;;
33690;SDS011;20026;50.058;18.428;2023-12-22T01:55:17;32.10;;;9.73;;
33690;SDS011;20026;50.058;18.428;2023-12-22T01:57:44;34.58;;;13.98;;
33690;SDS011;20026;50.058;18.428;2023-12-22T02:00:14;48.58;;;13.25;;
33690;SDS011;20026;50.058;18.428;2023-12-22T02:02:41;66.43;;;30.60;;
33690;SDS011;20026;50.058;18.428;2023-12-22T02:05:10;26.67;;;11.27;;
33690;SDS011;20026;50.058;18.428;2023-12-22T02:07:38;36.17;;;12.80;;
33690;SDS011;20026;50.058;18.428;2023-12-22T02:10:07;34.53;;;11.80;;
33690;SDS011;20026;50.058;18.428;2023-12-22T02:12:35;18.05;;;6.95;;
33690;SDS011;20026;50.058;18.428;2023-12-22T02:15:02;62.13;;;19.77;;
33690;SDS011;20026;50.058;18.428;2023-12-22T02:17:33;74.75;;;24.55;;
33690;SDS011;20026;50.058;18.428;2023-12-22T02:20:03;118.55;;;35.30;;
33690;SDS011;20026;50.058;18.428;2023-12-22T02:22:31;24.33;;;8.65;;
33690;SDS011;20026;50.058;18.428;2023-12-22T02:25:01;13.90;;;5.47;;
33690;SDS011;20026;50.058;18.428;2023-12-22T02:32:34;45.13;;;10.60;;
33690;SDS011;20026;50.058;18.428;2023-12-22T02:35:03;35.03;;;5.47;;
33690;SDS011;20026;50.058;18.428;2023-12-22T02:37:34;29.23;;;9.35;;
33690;SDS011;20026;50.058;18.428;2023-12-22T02:40:01;26.70;;;10.13;;
33690;SDS011;20026;50.058;18.428;2023-12-22T02:42:32;44.85;;;13.85;;
33690;SDS011;20026;50.058;18.428;2023-12-22T02:44:59;23.88;;;6.90;;
33690;SDS011;20026;50.058;18.428;2023-12-22T02:47:26;20.98;;;7.65;;
33690;SDS011;20026;50.058;18.428;2023-12-22T02:49:53;27.13;;;9.23;;
33690;SDS011;20026;50.058;18.428;2023-12-22T02:52:20;32.90;;;14.07;;
33690;SDS011;20026;50.058;18.428;2023-12-22T02:54:46;59.42;;;20.90;;
33690;SDS011;20026;50.058;18.428;2023-12-22T02:57:12;31.05;;;13.77;;
33690;SDS011;20026;50.058;18.428;2023-12-22T02:59:42;25.85;;;8.88;;
33690;SDS011;20026;50.058;18.428;2023-12-22T03:02:08;20.45;;;6.95;;
33690;SDS011;20026;50.058;18.428;2023-12-22T03:04:34;23.38;;;9.15;;
33690;SDS011;20026;50.058;18.428;2023-12-22T03:07:01;36.05;;;14.63;;
33690;SDS011;20026;50.058;18.428;2023-12-22T03:09:27;17.40;;;6.45;;
33690;SDS011;20026;50.058;18.428;2023-12-22T03:12:00;14.57;;;5.75;;
33690;SDS011;20026;50.058;18.428;2023-12-22T03:14:29;18.88;;;6.50;;
33690;SDS011;20026;50.058;18.428;2023-12-22T03:16:56;15.75;;;6.35;;
33690;SDS011;20026;50.058;18.428;2023-12-22T03:19:22;18.48;;;7.45;;
33690;SDS011;20026;50.058;18.428;2023-12-22T03:21:49;10.65;;;4.05;;
33690;SDS011;20026;50.058;18.428;2023-12-22T03:24:17;17.40;;;5.18;;
33690;SDS011;20026;50.058;18.428;2023-12-22T03:26:45;11.00;;;4.35;;
33690;SDS011;20026;50.058;18.428;2023-12-22T03:29:14;12.82;;;4.88;;
33690;SDS011;20026;50.058;18.428;2023-12-22T03:31:43;24.70;;;8.75;;
33690;SDS011;20026;50.058;18.428;2023-12-22T03:34:10;21.77;;;8.55;;
33690;SDS011;20026;50.058;18.428;2023-12-22T03:36:36;23.52;;;10.52;;
33690;SDS011;20026;50.058;18.428;2023-12-22T03:39:02;38.25;;;12.50;;
33690;SDS011;20026;50.058;18.428;2023-12-22T03:41:30;11.65;;;3.50;;
33690;SDS011;20026;50.058;18.428;2023-12-22T03:43:57;40.22;;;17.90;;
33690;SDS011;20026;50.058;18.428;2023-12-22T03:46:24;13.15;;;4.95;;
33690;SDS011;20026;50.058;18.428;2023-12-22T03:48:51;21.27;;;6.43;;
33690;SDS011;20026;50.058;18.428;2023-12-22T03:51:18;12.35;;;5.25;;
33690;SDS011;20026;50.058;18.428;2023-12-22T03:53:44;17.08;;;7.85;;
33690;SDS011;20026;50.058;18.428;2023-12-22T03:56:11;454.98;;;193.85;;
33690;SDS011;20026;50.058;18.428;2023-12-22T03:58:38;510.83;;;371.70;;
33690;SDS011;20026;50.058;18.428;2023-12-22T04:01:05;504.52;;;329.40;;
33690;SDS011;20026;50.058;18.428;2023-12-22T04:03:38;871.58;;;491.48;;
33690;SDS011;20026;50.058;18.428;2023-12-22T04:06:05;448.00;;;241.38;;
33690;SDS011;20026;50.058;18.428;2023-12-22T04:08:31;451.05;;;264.38;;
33690;SDS011;20026;50.058;18.428;2023-12-22T04:11:01;386.25;;;217.30;;
33690;SDS011;20026;50.058;18.428;2023-12-22T04:13:28;249.60;;;145.65;;
33690;SDS011;20026;50.058;18.428;2023-12-22T04:15:54;114.10;;;85.85;;
33690;SDS011;20026;50.058;18.428;2023-12-22T04:18:20;78.43;;;58.95;;
33690;SDS011;20026;50.058;18.428;2023-12-22T04:20:47;43.13;;;29.05;;
33690;SDS011;20026;50.058;18.428;2023-12-22T04:23:16;28.45;;;18.58;;
33690;SDS011;20026;50.058;18.428;2023-12-22T04:25:44;20.42;;;8.93;;
33690;SDS011;20026;50.058;18.428;2023-12-22T04:28:11;21.88;;;8.68;;
33690;SDS011;20026;50.058;18.428;2023-12-22T04:30:37;17.70;;;6.60;;
33690;SDS011;20026;50.058;18.428;2023-12-22T04:33:04;18.75;;;6.40;;
33690;SDS011;20026;50.058;18.428;2023-12-22T04:35:32;20.98;;;8.20;;
33690;SDS011;20026;50.058;18.428;2023-12-22T04:37:58;15.52;;;8.88;;
33690;SDS011;20026;50.058;18.428;2023-12-22T04:40:24;16.98;;;8.00;;
33690;SDS011;20026;50.058;18.428;2023-12-22T04:42:53;13.38;;;4.95;;
33690;SDS011;20026;50.058;18.428;2023-12-22T04:45:20;12.77;;;5.13;;
33690;SDS011;20026;50.058;18.428;2023-12-22T04:47:46;20.52;;;8.60;;
33690;SDS011;20026;50.058;18.428;2023-12-22T04:50:13;20.27;;;7.05;;
33690;SDS011;20026;50.058;18.428;2023-12-22T04:52:41;36.13;;;10.35;;
33690;SDS011;20026;50.058;18.428;2023-12-22T04:55:07;19.90;;;6.60;;
33690;SDS011;20026;50.058;18.428;2023-12-22T04:57:33;13.48;;;4.55;;
33690;SDS011;20026;50.058;18.428;2023-12-22T05:00:00;8.98;;;3.70;;
33690;SDS011;20026;50.058;18.428;2023-12-22T05:02:27;5.25;;;1.60;;
33690;SDS011;20026;50.058;18.428;2023-12-22T05:04:54;5.50;;;2.63;;
33690;SDS011;20026;50.058;18.428;2023-12-22T05:07:22;6.72;;;2.40;;
33690;SDS011;20026;50.058;18.428;2023-12-22T05:09:52;9.15;;;3.25;;
33690;SDS011;20026;50.058;18.428;2023-12-22T05:12:21;12.32;;;3.85;;
33690;SDS011;20026;50.058;18.428;2023-12-22T05:14:48;8.63;;;2.97;;
33690;SDS011;20026;50.058;18.428;2023-12-22T05:17:14;12.32;;;4.15;;
33690;SDS011;20026;50.058;18.428;2023-12-22T05:19:40;19.88;;;6.93;;
33690;SDS011;20026;50.058;18.428;2023-12-22T05:22:07;27.65;;;8.88;;
33690;SDS011;20026;50.058;18.428;2023-12-22T05:24:34;25.40;;;8.48;;
33690;SDS011;20026;50.058;18.428;2023-12-22T05:27:00;30.70;;;12.80;;
33690;SDS011;20026;50.058;18.428;2023-12-22T05:29:28;20.23;;;8.27;;
33690;SDS011;20026;50.058;18.428;2023-12-22T05:31:55;9.73;;;4.07;;
33690;SDS011;20026;50.058;18.428;2023-12-22T05:34:22;8.98;;;3.67;;
33690;SDS011;20026;50.058;18.428;2023-12-22T05:36:49;8.32;;;3.60;;
33690;SDS011;20026;50.058;18.428;2023-12-22T05:39:15;15.35;;;6.13;;
33690;SDS011;20026;50.058;18.428;2023-12-22T05:41:42;13.00;;;7.55;;
33690;SDS011;20026;50.058;18.428;2023-12-22T05:44:11;10.25;;;4.82;;
33690;SDS011;20026;50.058;18.428;2023-12-22T05:46:42;16.42;;;6.72;;
33690;SDS011;20026;50.058;18.428;2023-12-22T05:49:08;17.10;;;7.18;;
33690;SDS011;20026;50.058;18.428;2023-12-22T05:51:38;19.55;;;9.32;;
33690;SDS011;20026;50.058;18.428;2023-12-22T05:54:09;33.83;;;15.15;;
33690;SDS011;20026;50.058;18.428;2023-12-22T05:56:36;36.13;;;17.02;;
33690;SDS011;20026;50.058;18.428;2023-12-22T05:59:04;44.15;;;20.85;;
33690;SDS011;20026;50.058;18.428;2023-12-22T06:01:31;51.83;;;19.52;;
33690;SDS011;20026;50.058;18.428;2023-12-22T06:03:58;62.97;;;25.83;;
33690;SDS011;20026;50.058;18.428;2023-12-22T06:06:25;57.00;;;22.05;;
33690;SDS011;20026;50.058;18.428;2023-12-22T06:08:53;47.22;;;22.08;;
33690;SDS011;20026;50.058;18.428;2023-12-22T06:11:20;38.83;;;19.20;;
33690;SDS011;20026;50.058;18.428;2023-12-22T06:13:50;42.72;;;19.58;;
33690;SDS011;20026;50.058;18.428;2023-12-22T06:16:18;41.33;;;21.10;;
33690;SDS011;20026;50.058;18.428;2023-12-22T06:18:44;31.63;;;14.02;;
33690;SDS011;20026;50.058;18.428;2023-12-22T06:23:41;25.50;;;14.10;;
33690;SDS011;20026;50.058;18.428;2023-12-22T06:26:08;20.13;;;11.50;;
33690;SDS011;20026;50.058;18.428;2023-12-22T06:28:36;21.85;;;9.90;;
33690;SDS011;20026;50.058;18.428;2023-12-22T06:31:04;26.30;;;14.43;;
33690;SDS011;20026;50.058;18.428;2023-12-22T06:33:30;22.13;;;11.32;;
33690;SDS011;20026;50.058;18.428;2023-12-22T06:35:56;26.30;;;12.60;;
33690;SDS011;20026;50.058;18.428;2023-12-22T06:38:22;24.38;;;12.65;;
33690;SDS011;20026;50.058;18.428;2023-12-22T06:40:48;21.70;;;11.90;;
33690;SDS011;20026;50.058;18.428;2023-12-22T06:43:15;29.02;;;14.07;;
33690;SDS011;20026;50.058;18.428;2023-12-22T06:45:42;22.67;;;11.52;;
33690;SDS011;20026;50.058;18.428;2023-12-22T06:48:08;25.10;;;11.90;;
33690;SDS011;20026;50.058;18.428;2023-12-22T06:50:35;23.25;;;9.60;;
33690;SDS011;20026;50.058;18.428;2023-12-22T06:53:06;14.93;;;7.07;;
33690;SDS011;20026;50.058;18.428;2023-12-22T06:55:32;17.42;;;7.00;;
33690;SDS011;20026;50.058;18.428;2023-12-22T06:58:00;18.48;;;10.27;;
33690;SDS011;20026;50.058;18.428;2023-12-22T07:00:26;33.50;;;11.90;;
33690;SDS011;20026;50.058;18.428;2023-12-22T07:02:52;73.15;;;22.05;;
33690;SDS011;20026;50.058;18.428;2023-12-22T07:07:53;68.65;;;26.45;;
33690;SDS011;20026;50.058;18.428;2023-12-22T07:10:19;89.85;;;34.55;;
33690;SDS011;20026;50.058;18.428;2023-12-22T07:12:45;76.80;;;26.02;;
33690;SDS011;20026;50.058;18.428;2023-12-22T07:15:12;55.88;;;20.30;;
33690;SDS011;20026;50.058;18.428;2023-12-22T07:17:39;56.20;;;19.35;;
33690;SDS011;20026;50.058;18.428;2023-12-22T07:20:06;45.95;;;16.95;;
33690;SDS011;20026;50.058;18.428;2023-12-22T07:22:32;42.42;;;18.08;;
33690;SDS011;20026;50.058;18.428;2023-12-22T07:24:58;141.45;;;43.80;;
33690;SDS011;20026;50.058;18.428;2023-12-22T07:27:25;116.13;;;38.08;;
33690;SDS011;20026;50.058;18.428;2023-12-22T07:29:51;296.50;;;86.72;;
33690;SDS011;20026;50.058;18.428;2023-12-22T07:32:18;252.43;;;77.40;;
33690;SDS011;20026;50.058;18.428;2023-12-22T07:34:45;103.30;;;34.25;;
33690;SDS011;20026;50.058;18.428;2023-12-22T07:37:12;152.48;;;51.85;;
33690;SDS011;20026;50.058;18.428;2023-12-22T07:39:38;58.65;;;22.67;;
33690;SDS011;20026;50.058;18.428;2023-12-22T07:42:05;48.35;;;18.80;;
33690;SDS011;20026;50.058;18.428;2023-12-22T07:44:32;49.25;;;21.45;;
33690;SDS011;20026;50.058;18.428;2023-12-22T07:46:59;42.25;;;18.13;;
33690;SDS011;20026;50.058;18.428;2023-12-22T07:49:26;35.05;;;17.83;;
33690;SDS011;20026;50.058;18.428;2023-12-22T07:51:53;44.85;;;20.48;;
33690;SDS011;20026;50.058;18.428;2023-12-22T07:54:20;21.25;;;9.98;;
33690;SDS011;20026;50.058;18.428;2023-12-22T07:56:46;13.13;;;6.10;;
33690;SDS011;20026;50.058;18.428;2023-12-22T07:59:13;29.58;;;13.80;;
33690;SDS011;20026;50.058;18.428;2023-12-22T08:01:40;51.95;;;28.85;;
33690;SDS011;20026;50.058;18.428;2023-12-22T08:04:09;16.58;;;7.47;;
33690;SDS011;20026;50.058;18.428;2023-12-22T08:06:35;16.13;;;7.53;;
33690;SDS011;20026;50.058;18.428;2023-12-22T08:09:02;40.17;;;19.00;;
33690;SDS011;20026;50.058;18.428;2023-12-22T08:11:29;40.08;;;16.77;;
33690;SDS011;20026;50.058;18.428;2023-12-22T08:13:55;33.92;;;16.25;;
33690;SDS011;20026;50.058;18.428;2023-12-22T08:16:22;32.55;;;14.60;;
33690;SDS011;20026;50.058;18.428;2023-12-22T08:18:49;22.00;;;10.68;;
33690;SDS011;20026;50.058;18.428;2023-12-22T08:21:17;47.47;;;21.08;;
33690;SDS011;20026;50.058;18.428;2023-12-22T08:23:44;44.75;;;18.60;;
33690;SDS011;20026;50.058;18.428;2023-12-22T08:26:11;120.45;;;44.22;;
33690;SDS011;20026;50.058;18.428;2023-12-22T08:28:39;107.43;;;43.53;;
33690;SDS011;20026;50.058;18.428;2023-12-22T08:31:07;97.00;;;37.40;;
33690;SDS011;20026;50.058;18.428;2023-12-22T08:33:34;65.28;;;26.67;;
33690;SDS011;20026;50.058;18.428;2023-12-22T08:36:06;61.10;;;23.90;;
33690;SDS011;20026;50.058;18.428;2023-12-22T08:38:33;35.08;;;14.10;;
33690;SDS011;20026;50.058;18.428;2023-12-22T08:40:59;48.90;;;22.40;;
33690;SDS011;20026;50.058;18.428;2023-12-22T08:43:26;116.55;;;46.50;;
33690;SDS011;20026;50.058;18.428;2023-12-22T08:45:52;158.73;;;60.40;;
33690;SDS011;20026;50.058;18.428;2023-12-22T08:48:19;52.35;;;22.15;;
33690;SDS011;20026;50.058;18.428;2023-12-22T08:50:46;48.22;;;22.98;;
33690;SDS011;20026;50.058;18.428;2023-12-22T08:53:13;126.13;;;60.20;;
33690;SDS011;20026;50.058;18.428;2023-12-22T08:55:39;68.38;;;34.50;;
33690;SDS011;20026;50.058;18.428;2023-12-22T08:58:05;44.83;;;25.15;;
33690;SDS011;20026;50.058;18.428;2023-12-22T09:00:32;40.30;;;21.65;;
33690;SDS011;20026;50.058;18.428;2023-12-22T09:02:59;38.58;;;20.77;;
33690;SDS011;20026;50.058;18.428;2023-12-22T09:05:25;28.90;;;16.92;;
33690;SDS011;20026;50.058;18.428;2023-12-22T09:07:51;22.10;;;13.80;;
33690;SDS011;20026;50.058;18.428;2023-12-22T09:10:18;19.00;;;9.45;;
33690;SDS011;20026;50.058;18.428;2023-12-22T09:12:45;37.25;;;21.20;;
33690;SDS011;20026;50.058;18.428;2023-12-22T09:15:11;22.48;;;12.10;;
33690;SDS011;20026;50.058;18.428;2023-12-22T09:17:39;23.25;;;14.25;;
33690;SDS011;20026;50.058;18.428;2023-12-22T09:20:08;37.08;;;15.60;;
33690;SDS011;20026;50.058;18.428;2023-12-22T09:22:34;34.72;;;21.75;;
33690;SDS011;20026;50.058;18.428;2023-12-22T09:25:01;27.42;;;15.98;;
33690;SDS011;20026;50.058;18.428;2023-12-22T09:27:29;36.13;;;21.55;;
33690;SDS011;20026;50.058;18.428;2023-12-22T09:29:56;41.58;;;22.05;;
33690;SDS011;20026;50.058;18.428;2023-12-22T09:32:23;42.08;;;22.25;;
33690;SDS011;20026;50.058;18.428;2023-12-22T09:34:51;19.50;;;12.38;;
33690;SDS011;20026;50.058;18.428;2023-12-22T09:37:17;35.25;;;18.85;;
33690;SDS011;20026;50.058;18.428;2023-12-22T09:39:44;62.63;;;47.17;;
33690;SDS011;20026;50.058;18.428;2023-12-22T09:42:10;54.83;;;28.90;;
33690;SDS011;20026;50.058;18.428;2023-12-22T09:44:46;49.60;;;25.17;;
33690;SDS011;20026;50.058;18.428;2023-12-22T09:47:16;45.83;;;15.75;;
33690;SDS011;20026;50.058;18.428;2023-12-22T09:49:43;35.03;;;11.77;;
33690;SDS011;20026;50.058;18.428;2023-12-22T09:52:11;21.88;;;8.70;;
33690;SDS011;20026;50.058;18.428;2023-12-22T09:54:38;26.13;;;8.98;;
33690;SDS011;20026;50.058;18.428;2023-12-22T09:57:05;32.45;;;10.55;;
33690;SDS011;20026;50.058;18.428;2023-12-22T09:59:33;29.73;;;11.57;;
33690;SDS011;20026;50.058;18.428;2023-12-22T10:02:00;26.45;;;11.43;;
33690;SDS011;20026;50.058;18.428;2023-12-22T10:04:28;29.13;;;15.20;;
33690;SDS011;20026;50.058;18.428;2023-12-22T10:06:56;34.83;;;16.27;;
33690;SDS011;20026;50.058;18.428;2023-12-22T10:09:29;43.50;;;19.15;;
33690;SDS011;20026;50.058;18.428;2023-12-22T10:11:57;16.60;;;5.85;;
33690;SDS011;20026;50.058;18.428;2023-12-22T10:14:24;18.70;;;8.77;;
33690;SDS011;20026;50.058;18.428;2023-12-22T10:16:52;17.08;;;7.90;;
33690;SDS011;20026;50.058;18.428;2023-12-22T10:19:19;19.00;;;7.13;;
33690;SDS011;20026;50.058;18.428;2023-12-22T10:21:47;24.25;;;10.75;;
33690;SDS011;20026;50.058;18.428;2023-12-22T10:27:01;53.75;;;20.80;;
33690;SDS011;20026;50.058;18.428;2023-12-22T10:29:27;19.33;;;8.25;;
33690;SDS011;20026;50.058;18.428;2023-12-22T10:31:54;29.90;;;13.32;;
33690;SDS011;20026;50.058;18.428;2023-12-22T10:34:20;16.23;;;6.22;;
33690;SDS011;20026;50.058;18.428;2023-12-22T10:36:50;23.77;;;13.75;;
33690;SDS011;20026;50.058;18.428;2023-12-22T10:39:16;28.73;;;10.98;;
33690;SDS011;20026;50.058;18.428;2023-12-22T10:41:43;19.48;;;7.45;;
33690;SDS011;20026;50.058;18.428;2023-12-22T10:44:10;14.00;;;6.10;;
33690;SDS011;20026;50.058;18.428;2023-12-22T10:46:39;31.13;;;14.35;;
33690;SDS011;20026;50.058;18.428;2023-12-22T10:49:10;28.15;;;13.02;;
33690;SDS011;20026;50.058;18.428;2023-12-22T10:51:36;10.20;;;4.30;;
33690;SDS011;20026;50.058;18.428;2023-12-22T10:54:04;8.73;;;2.95;;
33690;SDS011;20026;50.058;18.428;2023-12-22T10:56:31;4.65;;;1.98;;
33690;SDS011;20026;50.058;18.428;2023-12-22T10:58:58;3.35;;;1.50;;
33690;SDS011;20026;50.058;18.428;2023-12-22T11:01:26;13.25;;;6.15;;
33690;SDS011;20026;50.058;18.428;2023-12-22T11:03:57;14.27;;;5.72;;
33690;SDS011;20026;50.058;18.428;2023-12-22T11:08:52;15.13;;;6.60;;
33690;SDS011;20026;50.058;18.428;2023-12-22T11:11:40;14.80;;;6.10;;
33690;SDS011;20026;50.058;18.428;2023-12-22T11:14:06;20.13;;;9.88;;
33690;SDS011;20026;50.058;18.428;2023-12-22T11:16:35;27.38;;;14.30;;
33690;SDS011;20026;50.058;18.428;2023-12-22T11:19:02;22.33;;;9.07;;
33690;SDS011;20026;50.058;18.428;2023-12-22T11:21:31;13.15;;;5.55;;
33690;SDS011;20026;50.058;18.428;2023-12-22T11:23:58;14.65;;;7.03;;
33690;SDS011;20026;50.058;18.428;2023-12-22T11:26:26;18.23;;;7.63;;
33690;SDS011;20026;50.058;18.428;2023-12-22T11:28:54;21.77;;;10.40;;
33690;SDS011;20026;50.058;18.428;2023-12-22T11:31:22;9.05;;;4.43;;
33690;SDS011;20026;50.058;18.428;2023-12-22T11:33:50;13.50;;;5.70;;
33690;SDS011;20026;50.058;18.428;2023-12-22T11:36:20;5.28;;;2.17;;
33690;SDS011;20026;50.058;18.428;2023-12-22T11:38:48;4.60;;;2.13;;
33690;SDS011;20026;50.058;18.428;2023-12-22T11:41:26;12.15;;;4.88;;
33690;SDS011;20026;50.058;18.428;2023-12-22T11:43:54;6.07;;;2.42;;
33690;SDS011;20026;50.058;18.428;2023-12-22T11:46:23;5.38;;;1.40;;
33690;SDS011;20026;50.058;18.428;2023-12-22T11:48:51;4.18;;;1.50;;
33690;SDS011;20026;50.058;18.428;2023-12-22T11:51:18;7.57;;;2.15;;
33690;SDS011;20026;50.058;18.428;2023-12-22T11:53:46;14.00;;;5.65;;
33690;SDS011;20026;50.058;18.428;2023-12-22T11:56:13;7.75;;;1.70;;
33690;SDS011;20026;50.058;18.428;2023-12-22T11:58:41;4.15;;;1.35;;
33690;SDS011;20026;50.058;18.428;2023-12-22T12:01:09;8.00;;;2.38;;
33690;SDS011;20026;50.058;18.428;2023-12-22T12:03:37;7.93;;;2.92;;
33690;SDS011;20026;50.058;18.428;2023-12-22T12:06:14;25.55;;;11.10;;
33690;SDS011;20026;50.058;18.428;2023-12-22T12:08:49;10.30;;;4.60;;
33690;SDS011;20026;50.058;18.428;2023-12-22T12:11:17;7.07;;;3.38;;
33690;SDS011;20026;50.058;18.428;2023-12-22T12:13:44;9.02;;;3.90;;
33690;SDS011;20026;50.058;18.428;2023-12-22T12:16:11;8.20;;;3.15;;
33690;SDS011;20026;50.058;18.428;2023-12-22T12:18:38;5.72;;;2.13;;
33690;SDS011;20026;50.058;18.428;2023-12-22T12:21:07;3.17;;;1.40;;
33690;SDS011;20026;50.058;18.428;2023-12-22T12:23:34;7.57;;;3.03;;
33690;SDS011;20026;50.058;18.428;2023-12-22T12:26:01;6.47;;;2.85;;
33690;SDS011;20026;50.058;18.428;2023-12-22T12:28:31;15.82;;;6.32;;
33690;SDS011;20026;50.058;18.428;2023-12-22T12:31:05;21.55;;;11.45;;
33690;SDS011;20026;50.058;18.428;2023-12-22T12:33:32;16.58;;;7.60;;
33690;SDS011;20026;50.058;18.428;2023-12-22T12:36:02;10.80;;;6.00;;
33690;SDS011;20026;50.058;18.428;2023-12-22T12:38:36;5.53;;;2.58;;
33690;SDS011;20026;50.058;18.428;2023-12-22T12:41:09;5.85;;;2.50;;
33690;SDS011;20026;50.058;18.428;2023-12-22T12:43:40;3.70;;;1.70;;
33690;SDS011;20026;50.058;18.428;2023-12-22T12:46:09;5.90;;;2.00;;
33690;SDS011;20026;50.058;18.428;2023-12-22T12:48:36;4.40;;;1.48;;
33690;SDS011;20026;50.058;18.428;2023-12-22T12:51:06;8.30;;;3.58;;
33690;SDS011;20026;50.058;18.428;2023-12-22T12:53:33;6.95;;;3.58;;
33690;SDS011;20026;50.058;18.428;2023-12-22T12:56:03;7.95;;;4.63;;
33690;SDS011;20026;50.058;18.428;2023-12-22T12:58:31;12.40;;;4.30;;
33690;SDS011;20026;50.058;18.428;2023-12-22T13:01:09;5.95;;;2.45;;
33690;SDS011;20026;50.058;18.428;2023-12-22T13:03:53;3.60;;;1.27;;
33690;SDS011;20026;50.058;18.428;2023-12-22T13:06:20;6.40;;;1.58;;
33690;SDS011;20026;50.058;18.428;2023-12-22T13:08:55;7.30;;;1.92;;
33690;SDS011;20026;50.058;18.428;2023-12-22T13:14:26;5.22;;;2.58;;
33690;SDS011;20026;50.058;18.428;2023-12-22T13:16:54;10.00;;;3.15;;
33690;SDS011;20026;50.058;18.428;2023-12-22T13:19:25;11.45;;;2.22;;
33690;SDS011;20026;50.058;18.428;2023-12-22T13:21:53;8.25;;;3.78;;
33690;SDS011;20026;50.058;18.428;2023-12-22T13:24:21;6.18;;;2.70;;
33690;SDS011;20026;50.058;18.428;2023-12-22T13:26:58;10.73;;;2.65;;
33690;SDS011;20026;50.058;18.428;2023-12-22T13:29:26;6.80;;;2.75;;
33690;SDS011;20026;50.058;18.428;2023-12-22T13:31:54;5.60;;;1.73;;
33690;SDS011;20026;50.058;18.428;2023-12-22T13:34:23;72.38;;;42.83;;
33690;SDS011;20026;50.058;18.428;2023-12-22T13:36:50;6.80;;;2.90;;
33690;SDS011;20026;50.058;18.428;2023-12-22T13:39:17;8.50;;;2.75;;
33690;SDS011;20026;50.058;18.428;2023-12-22T13:41:43;10.75;;;3.50;;
33690;SDS011;20026;50.058;18.428;2023-12-22T13:44:14;8.10;;;3.10;;
33690;SDS011;20026;50.058;18.428;2023-12-22T13:46:40;16.92;;;6.55;;
33690;SDS011;20026;50.058;18.428;2023-12-22T13:49:12;14.00;;;5.70;;
33690;SDS011;20026;50.058;18.428;2023-12-22T13:51:40;9.85;;;5.50;;
33690;SDS011;20026;50.058;18.428;2023-12-22T13:54:08;8.57;;;2.90;;
33690;SDS011;20026;50.058;18.428;2023-12-22T13:56:34;10.48;;;3.15;;
33690;SDS011;20026;50.058;18.428;2023-12-22T13:59:02;9.90;;;3.20;;
33690;SDS011;20026;50.058;18.428;2023-12-22T14:01:32;9.38;;;4.90;;
33690;SDS011;20026;50.058;18.428;2023-12-22T14:03:59;11.52;;;5.90;;
33690;SDS011;20026;50.058;18.428;2023-12-22T14:06:26;11.27;;;3.55;;
33690;SDS011;20026;50.058;18.428;2023-12-22T14:08:54;12.93;;;3.90;;
33690;SDS011;20026;50.058;18.428;2023-12-22T14:11:24;13.35;;;3.17;;
33690;SDS011;20026;50.058;18.428;2023-12-22T14:13:51;19.52;;;7.85;;
33690;SDS011;20026;50.058;18.428;2023-12-22T14:16:17;5.75;;;2.75;;
33690;SDS011;20026;50.058;18.428;2023-12-22T14:18:44;24.35;;;10.25;;
33690;SDS011;20026;50.058;18.428;2023-12-22T14:21:11;32.30;;;17.95;;
33690;SDS011;20026;50.058;18.428;2023-12-22T14:23:38;18.60;;;6.50;;
33690;SDS011;20026;50.058;18.428;2023-12-22T14:26:06;27.88;;;13.43;;
33690;SDS011;20026;50.058;18.428;2023-12-22T14:28:33;234.35;;;100.40;;
33690;SDS011;20026;50.058;18.428;2023-12-22T14:31:01;13.98;;;5.85;;
33690;SDS011;20026;50.058;18.428;2023-12-22T14:33:27;10.25;;;4.30;;
33690;SDS011;20026;50.058;18.428;2023-12-22T14:35:54;10.80;;;4.72;;
33690;SDS011;20026;50.058;18.428;2023-12-22T14:38:21;17.13;;;6.75;;